Crescent Beach, Washington
Current Conditions -  °F | °C
As of 8:53 AM on Thursday 30 Oct 2014 (Local Time) from KCLM Reporting Station
Overcast Overcast  
Wind Chill: 51°   Ceiling: 6500
Heat Index: 51°   Visibility: 10mi
Dew Point: 48°   Wind: 7mph
Humidity: 89%   Direction: 250°WSW
Pressure: 29.78"   Gusts: NA
Location:  48.1359°N, 123.734°W
Report Text: KCLM 301553Z AUTO 25006KT 10SM BKN065 OVC085 11/09 A2978 RMK AO2 SLP085 T01060089 $
Loading
Personal Weather Stations






























Interactive Weather Map
Tropical Storm Tracking
New forecast layout! Learn more

10-Day Weather Forecast

Advertisements
Track Severe Weather on mobile